LFPM 202230Z AUTO 35006KT CAVOK 14/10 Q1014

Les locaux du Club
   
  L'Entrée du club Batiment 50  
   
  L'accueil et la zone opérations  
   
  La zone opérations  
   
  La zone Briefing  
   
  Le Club House  
   
  La parking avions et le hangard